Lott, Brandon
United StatesManBorn 19732007 – 2023Runner id 47587
Events
86
83 race dates
Best pace
10.893
km/h · 2010
Best finish
3rd
of 24 · 2010
Distance raced
10,812
km · splits not double-counted
Pace over time
83 of 86 results · km/h
Pace over time: 83 races from 2007 to 2023, ranging from 3.38 to 11.03 kilometres per hour, where higher is faster. A second, age-graded series is drawn above it; the gap between the two is the age credit.
- Actual pace
- Age-graded pace
3 results are not on this chart. They are counted in every statistic above and listed in full below — backyard ultras carry a lap count instead of a pace, which is the number that means something in that format.
Results
| Date | Event | Distance | Result | Pace km/h | Placing |
|---|---|---|---|---|---|
| 2007-09-08 | 50km | 6:42:04 h | 7.461 | 40/46 | |
| 2007-10-13 | 50mi | 9:28:33 h | 8.492 | 42/85 | |
| 2007-11-03 | 50mi | 9:48:40 h | 8.202 | 14/29 | |
| 2008-01-12 | Bridle Trails Winter Running FestivalUnited States | 50km | 5:26:28 h | 9.189 | 13/44 |
| 2008-02-23 | 50km | 5:31:28 h | 9.051 | 61/123 | |
| 2008-03-01 | 37mi | 6:41:16 h | 8.904 | 9/22 | |
| 2008-03-15 | Chuckanut 50KUnited States | 50km | 6:18:03 h | 7.935 | 162/294 |
| 2008-04-26 | 50mi | 10:33:40 h | 7.619 | 20/37 | |
| 2008-05-10 | Endurance Challenge - Washington Trail 50 kmUnited States | 50km | 7:21:25 h | 6.796 | 23/53 |
| 2008-05-17 | Watershed Preserve 12 Hr Trail RaceUnited States | 12h | 83.653 km | 6.971 | 17/53 |
| 2008-05-31 | The 20th Century 100K Trail RunUnited States | 100km | 12:04:00 h | 8.287 | 7/15 |
| 2008-07-12 | 50km | 6:19:00 h | 7.916 | 5/28 | |
| 2008-07-26 | 50mi | 9:38:16 h | 8.349 | 67/202 | |
| 2008-08-23 | 100mi | 30:23:11 h | 5.296 | 56/77 | |
| 2008-09-26 | 100mi | 31:54:03 h | 5.045 | 36/53 | |
| 2009-02-15 | 100mi | 33:20:00 h | 4.828 | 4/19 | |
| 2009-03-07 | 37mi | 6:38:16 h | 8.971 | 10/18 | |
| 2009-04-25 | 55km | 7:39:37 h | 7.180 | 30/43 | |
| 2009-06-06 | 50mi | 12:32:51 h | 6.413 | 59/62 | |
| 2009-06-19 | 100mi | 32:39:55 h | 4.927 | 52/72 | |
| 2009-07-11 | 50km | 7:26:56 h | 6.712 | 24/36 | |
| 2009-09-12 | 50km | 8:22:01 h | 5.976 | 42/60 | |
| 2009-09-26 | 100mi | 23:38:40 h | 6.806 | 40/87 | |
| 2010-01-16 | 34mi | 5:40:00 h | 9.656 | 22/38 | |
| 2010-03-13 | 37mi | 5:28:00 h | 10.893 | 3/24 | |
| 2010-04-09 | 50mi | 10:41:00 h | 7.532 | 9/26 | |
| 2010-07-10 | 50km | 6:52:02 h | 7.281 | 10/31 | |
| 2010-07-30 | 100mi | 34:48:00 h | 4.625 | 15/20 | |
| 2010-08-28 | 100mi | 27:03:19 h | 5.948 | 39/78 | |
| 2010-09-18 | 100mi | 32:50:23 h | 4.901 | 66/72 | |
| 2011-01-15 | 34mi | 7:17:00 h | 7.513 | 29/43 | |
| 2011-03-05 | 37mi | 6:02:00 h | 9.869 | 4/11 | |
| 2011-03-11 | 50km | 6:36:49 h | 7.560 | 53/125 | |
| 2011-04-16 | 100mi | 25:36:00 h | 6.287 | 7/12 | |
| 2011-04-29 | 100mi | 23:45:00 h | 6.776 | 4/15 | |
| 2011-07-30 | 50mi | 10:35:00 h | 7.603 | 109/244 | |
| 2011-08-27 | 100mi | 28:21:51 h | 5.674 | 60/106 | |
| 2011-09-09 | 100mi | 35:56:07 h | 4.478 | 182/183 | |
| 2012-05-24 | Pigtails Challenge 200 MileUnited States | 200mi | 2d 14:02:00 h | 5.189 | 6/9 |
| 2012-08-25 | 100mi | 31:36:51 h | 5.091 | 94/98 | |
| 2013-11-09 | 100mi | 26:57:29 h | 5.970 | 46/90 | |
| 2014-01-11 | 50km | 5:29:00 h | 9.119 | 3/4 | |
| 2015-04-11 | Lumberjack Endurance 100 Mile RunUnited States | 100mi | 25:39:00 h | 6.274 | 3/13 |
| 2015-08-29 | 100mi | 31:28:51 h | 5.112 | 93/99 | |
| 2016-01-16 | 50km | 5:50:00 h | 8.571 | 7/12 | |
| 2016-02-19 | 100mi | 31:51:17 h | 5.052 | 34/49 | |
| 2016-03-25 | 100mi | 24:32:00 h | 6.560 | 10/26 | |
| 2016-04-23 | Snake River Island Hop 50KUnited States | 50km | 4:45:00 h | 10.526 | 2/16 |
| 2016-05-28 | 100mi | 25:46:06 h | 6.245 | 9/19 | |
| 2016-06-18 | 50mi | 12:11:07 h | 6.604 | 7/12 |
Showing 1–50 of 86